sensor_id;sensor_type;location;lat;lon;timestamp;P1;durP1;ratioP1;P2;durP2;ratioP2
68921;SDS011;55959;51.244;5.724;2023-03-01T00:02:04;5.10;;;4.60;;
68921;SDS011;55959;51.244;5.724;2023-03-01T00:04:30;6.00;;;4.67;;
68921;SDS011;55959;51.244;5.724;2023-03-01T00:06:56;4.80;;;4.37;;
68921;SDS011;55959;51.244;5.724;2023-03-01T00:09:22;4.70;;;4.00;;
68921;SDS011;55959;51.244;5.724;2023-03-01T00:11:48;5.53;;;4.13;;
68921;SDS011;55959;51.244;5.724;2023-03-01T00:14:15;4.83;;;4.33;;
68921;SDS011;55959;51.244;5.724;2023-03-01T00:16:44;5.40;;;4.50;;
68921;SDS011;55959;51.244;5.724;2023-03-01T00:19:12;6.67;;;4.43;;
68921;SDS011;55959;51.244;5.724;2023-03-01T00:21:44;6.03;;;4.37;;
68921;SDS011;55959;51.244;5.724;2023-03-01T00:24:10;4.77;;;4.03;;
68921;SDS011;55959;51.244;5.724;2023-03-01T00:26:36;4.77;;;4.30;;
68921;SDS011;55959;51.244;5.724;2023-03-01T00:29:03;5.03;;;4.57;;
68921;SDS011;55959;51.244;5.724;2023-03-01T00:31:30;5.20;;;4.53;;
68921;SDS011;55959;51.244;5.724;2023-03-01T00:33:58;5.47;;;4.30;;
68921;SDS011;55959;51.244;5.724;2023-03-01T00:36:32;4.67;;;4.17;;
68921;SDS011;55959;51.244;5.724;2023-03-01T00:39:01;4.83;;;4.20;;
68921;SDS011;55959;51.244;5.724;2023-03-01T00:41:29;5.33;;;4.70;;
68921;SDS011;55959;51.244;5.724;2023-03-01T00:43:55;5.00;;;4.60;;
68921;SDS011;55959;51.244;5.724;2023-03-01T00:46:22;6.43;;;4.63;;
68921;SDS011;55959;51.244;5.724;2023-03-01T00:48:52;4.40;;;4.00;;
68921;SDS011;55959;51.244;5.724;2023-03-01T00:51:20;4.70;;;4.13;;
68921;SDS011;55959;51.244;5.724;2023-03-01T00:53:54;6.77;;;4.57;;
68921;SDS011;55959;51.244;5.724;2023-03-01T00:56:22;5.37;;;3.97;;
68921;SDS011;55959;51.244;5.724;2023-03-01T00:58:49;6.13;;;4.60;;
68921;SDS011;55959;51.244;5.724;2023-03-01T01:01:16;5.17;;;4.67;;
68921;SDS011;55959;51.244;5.724;2023-03-01T01:03:51;5.10;;;4.60;;
68921;SDS011;55959;51.244;5.724;2023-03-01T01:06:22;6.23;;;4.80;;
68921;SDS011;55959;51.244;5.724;2023-03-01T01:09:00;5.13;;;4.43;;
68921;SDS011;55959;51.244;5.724;2023-03-01T01:11:29;5.40;;;4.87;;
68921;SDS011;55959;51.244;5.724;2023-03-01T01:13:56;5.43;;;4.93;;
68921;SDS011;55959;51.244;5.724;2023-03-01T01:16:24;5.07;;;4.30;;
68921;SDS011;55959;51.244;5.724;2023-03-01T01:18:52;5.17;;;4.63;;
68921;SDS011;55959;51.244;5.724;2023-03-01T01:21:19;5.37;;;4.80;;
68921;SDS011;55959;51.244;5.724;2023-03-01T01:23:48;5.17;;;4.63;;
68921;SDS011;55959;51.244;5.724;2023-03-01T01:26:18;5.23;;;4.73;;
68921;SDS011;55959;51.244;5.724;2023-03-01T01:28:51;5.47;;;4.90;;
68921;SDS011;55959;51.244;5.724;2023-03-01T01:31:18;5.73;;;4.50;;
68921;SDS011;55959;51.244;5.724;2023-03-01T01:33:48;6.67;;;5.73;;
68921;SDS011;55959;51.244;5.724;2023-03-01T01:36:16;5.17;;;4.67;;
68921;SDS011;55959;51.244;5.724;2023-03-01T01:38:42;6.00;;;5.40;;
68921;SDS011;55959;51.244;5.724;2023-03-01T01:41:09;5.20;;;4.70;;
68921;SDS011;55959;51.244;5.724;2023-03-01T01:43:48;5.03;;;4.63;;
68921;SDS011;55959;51.244;5.724;2023-03-01T01:49:39;5.03;;;4.53;;
68921;SDS011;55959;51.244;5.724;2023-03-01T01:52:17;5.53;;;5.03;;
68921;SDS011;55959;51.244;5.724;2023-03-01T01:55:25;4.97;;;4.47;;
68921;SDS011;55959;51.244;5.724;2023-03-01T01:57:54;5.70;;;4.73;;
68921;SDS011;55959;51.244;5.724;2023-03-01T02:00:26;6.00;;;4.90;;
68921;SDS011;55959;51.244;5.724;2023-03-01T02:02:55;5.47;;;4.97;;
68921;SDS011;55959;51.244;5.724;2023-03-01T02:08:33;6.47;;;5.23;;
68921;SDS011;55959;51.244;5.724;2023-03-01T02:11:04;5.67;;;4.60;;
68921;SDS011;55959;51.244;5.724;2023-03-01T02:13:31;5.80;;;4.83;;
68921;SDS011;55959;51.244;5.724;2023-03-01T02:15:59;5.67;;;5.13;;
68921;SDS011;55959;51.244;5.724;2023-03-01T02:18:29;5.20;;;4.70;;
68921;SDS011;55959;51.244;5.724;2023-03-01T02:23:47;6.50;;;5.10;;
68921;SDS011;55959;51.244;5.724;2023-03-01T02:26:31;5.40;;;4.90;;
68921;SDS011;55959;51.244;5.724;2023-03-01T02:29:07;6.10;;;5.10;;
68921;SDS011;55959;51.244;5.724;2023-03-01T02:31:33;5.63;;;5.03;;
68921;SDS011;55959;51.244;5.724;2023-03-01T02:34:15;6.23;;;5.30;;
68921;SDS011;55959;51.244;5.724;2023-03-01T02:36:59;5.97;;;5.37;;
68921;SDS011;55959;51.244;5.724;2023-03-01T02:39:48;5.53;;;4.90;;
68921;SDS011;55959;51.244;5.724;2023-03-01T02:42:25;6.70;;;5.37;;
68921;SDS011;55959;51.244;5.724;2023-03-01T02:44:56;6.37;;;5.43;;
68921;SDS011;55959;51.244;5.724;2023-03-01T02:47:22;7.20;;;5.50;;
68921;SDS011;55959;51.244;5.724;2023-03-01T02:49:49;6.87;;;5.53;;
68921;SDS011;55959;51.244;5.724;2023-03-01T02:52:19;5.50;;;5.00;;
68921;SDS011;55959;51.244;5.724;2023-03-01T02:55:26;5.60;;;5.10;;
68921;SDS011;55959;51.244;5.724;2023-03-01T02:57:52;6.87;;;6.17;;
68921;SDS011;55959;51.244;5.724;2023-03-01T03:00:21;5.67;;;4.93;;
68921;SDS011;55959;51.244;5.724;2023-03-01T03:02:53;5.40;;;4.80;;
68921;SDS011;55959;51.244;5.724;2023-03-01T03:05:26;9.57;;;5.73;;
68921;SDS011;55959;51.244;5.724;2023-03-01T03:07:56;6.63;;;5.60;;
68921;SDS011;55959;51.244;5.724;2023-03-01T03:10:29;6.67;;;5.77;;
68921;SDS011;55959;51.244;5.724;2023-03-01T03:12:58;6.03;;;5.40;;
68921;SDS011;55959;51.244;5.724;2023-03-01T03:15:27;5.83;;;5.23;;
68921;SDS011;55959;51.244;5.724;2023-03-01T03:17:54;5.67;;;5.10;;
68921;SDS011;55959;51.244;5.724;2023-03-01T03:20:23;7.47;;;5.13;;
68921;SDS011;55959;51.244;5.724;2023-03-01T03:22:53;5.73;;;5.20;;
68921;SDS011;55959;51.244;5.724;2023-03-01T03:25:22;5.50;;;5.00;;
68921;SDS011;55959;51.244;5.724;2023-03-01T03:27:48;6.47;;;5.23;;
68921;SDS011;55959;51.244;5.724;2023-03-01T03:30:22;5.43;;;4.90;;
68921;SDS011;55959;51.244;5.724;2023-03-01T03:32:54;5.70;;;5.20;;
68921;SDS011;55959;51.244;5.724;2023-03-01T03:35:26;6.63;;;5.80;;
68921;SDS011;55959;51.244;5.724;2023-03-01T03:37:56;7.07;;;5.17;;
68921;SDS011;55959;51.244;5.724;2023-03-01T03:40:30;6.93;;;5.20;;
68921;SDS011;55959;51.244;5.724;2023-03-01T03:43:05;5.60;;;5.00;;
68921;SDS011;55959;51.244;5.724;2023-03-01T03:45:34;7.77;;;6.07;;
68921;SDS011;55959;51.244;5.724;2023-03-01T03:48:01;6.83;;;5.60;;
68921;SDS011;55959;51.244;5.724;2023-03-01T03:50:29;6.47;;;5.53;;
68921;SDS011;55959;51.244;5.724;2023-03-01T03:52:56;6.03;;;5.43;;
68921;SDS011;55959;51.244;5.724;2023-03-01T03:55:21;7.07;;;5.50;;
68921;SDS011;55959;51.244;5.724;2023-03-01T03:57:48;5.97;;;5.40;;
68921;SDS011;55959;51.244;5.724;2023-03-01T04:00:20;6.50;;;5.90;;
68921;SDS011;55959;51.244;5.724;2023-03-01T04:02:49;6.70;;;5.83;;
68921;SDS011;55959;51.244;5.724;2023-03-01T04:05:18;6.20;;;5.60;;
68921;SDS011;55959;51.244;5.724;2023-03-01T04:07:45;7.80;;;6.17;;
68921;SDS011;55959;51.244;5.724;2023-03-01T04:10:12;7.47;;;5.90;;
68921;SDS011;55959;51.244;5.724;2023-03-01T04:12:41;7.13;;;5.73;;
68921;SDS011;55959;51.244;5.724;2023-03-01T04:15:11;6.87;;;5.93;;
68921;SDS011;55959;51.244;5.724;2023-03-01T04:17:40;6.40;;;5.50;;
68921;SDS011;55959;51.244;5.724;2023-03-01T04:20:15;7.73;;;6.90;;
68921;SDS011;55959;51.244;5.724;2023-03-01T04:22:57;8.13;;;6.23;;
68921;SDS011;55959;51.244;5.724;2023-03-01T04:25:38;6.87;;;5.83;;
68921;SDS011;55959;51.244;5.724;2023-03-01T04:28:20;7.63;;;5.60;;
68921;SDS011;55959;51.244;5.724;2023-03-01T04:30:51;6.60;;;5.93;;
68921;SDS011;55959;51.244;5.724;2023-03-01T04:33:18;6.13;;;5.53;;
68921;SDS011;55959;51.244;5.724;2023-03-01T04:35:45;5.80;;;5.20;;
68921;SDS011;55959;51.244;5.724;2023-03-01T04:38:15;6.77;;;5.63;;
68921;SDS011;55959;51.244;5.724;2023-03-01T04:40:47;7.70;;;5.80;;
68921;SDS011;55959;51.244;5.724;2023-03-01T04:43:14;6.87;;;5.97;;
68921;SDS011;55959;51.244;5.724;2023-03-01T04:45:40;6.70;;;6.03;;
68921;SDS011;55959;51.244;5.724;2023-03-01T04:48:06;6.90;;;5.47;;
68921;SDS011;55959;51.244;5.724;2023-03-01T04:50:32;6.93;;;5.87;;
68921;SDS011;55959;51.244;5.724;2023-03-01T04:52:58;6.47;;;5.63;;
68921;SDS011;55959;51.244;5.724;2023-03-01T04:55:28;6.07;;;5.30;;
68921;SDS011;55959;51.244;5.724;2023-03-01T04:57:54;7.00;;;6.00;;
68921;SDS011;55959;51.244;5.724;2023-03-01T05:00:21;6.07;;;5.47;;
68921;SDS011;55959;51.244;5.724;2023-03-01T05:03:01;6.30;;;5.53;;
68921;SDS011;55959;51.244;5.724;2023-03-01T05:05:30;6.67;;;5.97;;
68921;SDS011;55959;51.244;5.724;2023-03-01T05:08:02;7.67;;;6.00;;
68921;SDS011;55959;51.244;5.724;2023-03-01T05:10:33;6.63;;;6.00;;
68921;SDS011;55959;51.244;5.724;2023-03-01T05:13:02;6.73;;;5.90;;
68921;SDS011;55959;51.244;5.724;2023-03-01T05:15:29;6.73;;;6.03;;
68921;SDS011;55959;51.244;5.724;2023-03-01T05:17:57;7.73;;;6.00;;
68921;SDS011;55959;51.244;5.724;2023-03-01T05:20:28;7.87;;;6.50;;
68921;SDS011;55959;51.244;5.724;2023-03-01T05:22:56;7.77;;;6.17;;
68921;SDS011;55959;51.244;5.724;2023-03-01T05:25:30;7.00;;;6.20;;
68921;SDS011;55959;51.244;5.724;2023-03-01T05:28:00;7.13;;;6.43;;
68921;SDS011;55959;51.244;5.724;2023-03-01T05:30:34;7.87;;;6.40;;
68921;SDS011;55959;51.244;5.724;2023-03-01T05:33:00;7.03;;;6.00;;
68921;SDS011;55959;51.244;5.724;2023-03-01T05:35:29;8.70;;;5.27;;
68921;SDS011;55959;51.244;5.724;2023-03-01T05:38:16;7.60;;;5.73;;
68921;SDS011;55959;51.244;5.724;2023-03-01T05:40:44;7.00;;;6.30;;
68921;SDS011;55959;51.244;5.724;2023-03-01T05:43:13;6.97;;;6.20;;
68921;SDS011;55959;51.244;5.724;2023-03-01T05:45:42;6.77;;;6.07;;
68921;SDS011;55959;51.244;5.724;2023-03-01T05:48:09;6.53;;;5.83;;
68921;SDS011;55959;51.244;5.724;2023-03-01T05:50:38;7.50;;;6.10;;
68921;SDS011;55959;51.244;5.724;2023-03-01T05:53:19;6.77;;;6.03;;
68921;SDS011;55959;51.244;5.724;2023-03-01T05:55:46;8.97;;;5.80;;
68921;SDS011;55959;51.244;5.724;2023-03-01T05:58:14;7.93;;;7.07;;
68921;SDS011;55959;51.244;5.724;2023-03-01T06:00:45;7.77;;;6.17;;
68921;SDS011;55959;51.244;5.724;2023-03-01T06:03:13;7.23;;;6.27;;
68921;SDS011;55959;51.244;5.724;2023-03-01T06:05:41;6.30;;;5.70;;
68921;SDS011;55959;51.244;5.724;2023-03-01T06:08:09;6.17;;;5.57;;
68921;SDS011;55959;51.244;5.724;2023-03-01T06:10:36;7.17;;;6.47;;
68921;SDS011;55959;51.244;5.724;2023-03-01T06:13:04;7.17;;;6.47;;
68921;SDS011;55959;51.244;5.724;2023-03-01T06:15:30;7.60;;;6.80;;
68921;SDS011;55959;51.244;5.724;2023-03-01T06:17:56;7.63;;;6.00;;
68921;SDS011;55959;51.244;5.724;2023-03-01T06:20:24;7.13;;;5.83;;
68921;SDS011;55959;51.244;5.724;2023-03-01T06:23:08;6.97;;;6.17;;
68921;SDS011;55959;51.244;5.724;2023-03-01T06:25:35;7.70;;;5.70;;
68921;SDS011;55959;51.244;5.724;2023-03-01T06:28:01;7.73;;;6.60;;
68921;SDS011;55959;51.244;5.724;2023-03-01T06:30:27;7.63;;;6.93;;
68921;SDS011;55959;51.244;5.724;2023-03-01T06:32:53;7.57;;;6.30;;
68921;SDS011;55959;51.244;5.724;2023-03-01T06:35:26;7.93;;;6.63;;
68921;SDS011;55959;51.244;5.724;2023-03-01T06:38:05;10.10;;;7.13;;
68921;SDS011;55959;51.244;5.724;2023-03-01T06:40:33;7.20;;;6.50;;
68921;SDS011;55959;51.244;5.724;2023-03-01T06:43:00;7.97;;;7.17;;
68921;SDS011;55959;51.244;5.724;2023-03-01T06:45:32;8.90;;;7.67;;
68921;SDS011;55959;51.244;5.724;2023-03-01T06:48:39;8.50;;;7.20;;
68921;SDS011;55959;51.244;5.724;2023-03-01T06:51:13;7.63;;;6.03;;
68921;SDS011;55959;51.244;5.724;2023-03-01T06:56:58;9.00;;;7.27;;
68921;SDS011;55959;51.244;5.724;2023-03-01T07:06:36;8.70;;;7.60;;
68921;SDS011;55959;51.244;5.724;2023-03-01T07:09:22;10.00;;;7.57;;
68921;SDS011;55959;51.244;5.724;2023-03-01T07:27:22;10.23;;;7.57;;
68921;SDS011;55959;51.244;5.724;2023-03-01T07:41:57;10.93;;;8.63;;
68921;SDS011;55959;51.244;5.724;2023-03-01T07:44:33;9.40;;;8.17;;
68921;SDS011;55959;51.244;5.724;2023-03-01T07:53:32;9.00;;;7.10;;
68921;SDS011;55959;51.244;5.724;2023-03-01T07:56:02;9.73;;;7.87;;
68921;SDS011;55959;51.244;5.724;2023-03-01T07:58:52;10.17;;;9.07;;
68921;SDS011;55959;51.244;5.724;2023-03-01T08:01:36;10.27;;;8.57;;
68921;SDS011;55959;51.244;5.724;2023-03-01T08:04:06;11.43;;;9.17;;
68921;SDS011;55959;51.244;5.724;2023-03-01T08:06:34;11.60;;;9.60;;
68921;SDS011;55959;51.244;5.724;2023-03-01T08:09:06;9.10;;;8.20;;
68921;SDS011;55959;51.244;5.724;2023-03-01T08:11:33;12.03;;;9.27;;
68921;SDS011;55959;51.244;5.724;2023-03-01T08:14:09;9.67;;;8.57;;
68921;SDS011;55959;51.244;5.724;2023-03-01T08:16:40;10.40;;;8.70;;
68921;SDS011;55959;51.244;5.724;2023-03-01T08:19:22;9.67;;;8.67;;
68921;SDS011;55959;51.244;5.724;2023-03-01T08:21:58;11.70;;;9.10;;
68921;SDS011;55959;51.244;5.724;2023-03-01T08:24:30;9.97;;;8.93;;
68921;SDS011;55959;51.244;5.724;2023-03-01T08:26:57;12.50;;;9.07;;
68921;SDS011;55959;51.244;5.724;2023-03-01T08:29:23;9.43;;;8.40;;
68921;SDS011;55959;51.244;5.724;2023-03-01T08:31:56;8.87;;;8.00;;
68921;SDS011;55959;51.244;5.724;2023-03-01T08:34:25;11.30;;;9.20;;
68921;SDS011;55959;51.244;5.724;2023-03-01T08:36:52;10.37;;;7.97;;
68921;SDS011;55959;51.244;5.724;2023-03-01T08:39:26;9.60;;;8.47;;
68921;SDS011;55959;51.244;5.724;2023-03-01T08:42:00;11.17;;;8.63;;
68921;SDS011;55959;51.244;5.724;2023-03-01T08:44:26;9.27;;;8.10;;
68921;SDS011;55959;51.244;5.724;2023-03-01T08:46:54;9.27;;;7.77;;
68921;SDS011;55959;51.244;5.724;2023-03-01T08:49:20;8.97;;;8.07;;
68921;SDS011;55959;51.244;5.724;2023-03-01T08:51:47;10.00;;;8.20;;
68921;SDS011;55959;51.244;5.724;2023-03-01T08:54:17;9.33;;;7.87;;
68921;SDS011;55959;51.244;5.724;2023-03-01T08:56:47;10.70;;;7.83;;
68921;SDS011;55959;51.244;5.724;2023-03-01T08:59:17;10.47;;;8.20;;
68921;SDS011;55959;51.244;5.724;2023-03-01T09:02:02;10.13;;;8.27;;
68921;SDS011;55959;51.244;5.724;2023-03-01T09:04:45;10.77;;;9.03;;
68921;SDS011;55959;51.244;5.724;2023-03-01T09:07:14;10.33;;;9.23;;
68921;SDS011;55959;51.244;5.724;2023-03-01T09:09:40;9.43;;;8.20;;
68921;SDS011;55959;51.244;5.724;2023-03-01T09:12:20;9.63;;;8.53;;
68921;SDS011;55959;51.244;5.724;2023-03-01T09:14:50;12.10;;;8.87;;
68921;SDS011;55959;51.244;5.724;2023-03-01T09:17:36;8.97;;;7.67;;
68921;SDS011;55959;51.244;5.724;2023-03-01T09:20:09;10.60;;;8.33;;
68921;SDS011;55959;51.244;5.724;2023-03-01T09:22:38;11.20;;;7.90;;
68921;SDS011;55959;51.244;5.724;2023-03-01T09:25:04;11.17;;;9.30;;
68921;SDS011;55959;51.244;5.724;2023-03-01T09:27:33;9.30;;;8.13;;
68921;SDS011;55959;51.244;5.724;2023-03-01T09:29:59;9.83;;;8.37;;
68921;SDS011;55959;51.244;5.724;2023-03-01T09:32:27;11.87;;;8.30;;
68921;SDS011;55959;51.244;5.724;2023-03-01T09:38:33;11.47;;;8.70;;
68921;SDS011;55959;51.244;5.724;2023-03-01T09:41:08;11.57;;;9.03;;
68921;SDS011;55959;51.244;5.724;2023-03-01T09:44:16;11.30;;;9.70;;
68921;SDS011;55959;51.244;5.724;2023-03-01T09:47:17;10.30;;;8.93;;
68921;SDS011;55959;51.244;5.724;2023-03-01T09:50:20;10.17;;;8.80;;
68921;SDS011;55959;51.244;5.724;2023-03-01T09:53:31;13.60;;;10.00;;
68921;SDS011;55959;51.244;5.724;2023-03-01T10:03:30;10.90;;;9.80;;
68921;SDS011;55959;51.244;5.724;2023-03-01T10:06:22;11.40;;;9.00;;
68921;SDS011;55959;51.244;5.724;2023-03-01T10:17:52;10.47;;;9.33;;
68921;SDS011;55959;51.244;5.724;2023-03-01T10:23:50;11.87;;;9.23;;
68921;SDS011;55959;51.244;5.724;2023-03-01T10:29:15;11.77;;;9.57;;
68921;SDS011;55959;51.244;5.724;2023-03-01T10:32:25;12.60;;;9.37;;
68921;SDS011;55959;51.244;5.724;2023-03-01T10:41:24;12.43;;;9.57;;
68921;SDS011;55959;51.244;5.724;2023-03-01T10:44:15;11.03;;;9.23;;
68921;SDS011;55959;51.244;5.724;2023-03-01T10:47:16;10.63;;;9.53;;
68921;SDS011;55959;51.244;5.724;2023-03-01T10:50:08;10.40;;;9.30;;
68921;SDS011;55959;51.244;5.724;2023-03-01T10:53:02;11.17;;;9.47;;
68921;SDS011;55959;51.244;5.724;2023-03-01T10:59:04;10.63;;;9.33;;
68921;SDS011;55959;51.244;5.724;2023-03-01T11:01:51;11.00;;;9.13;;
68921;SDS011;55959;51.244;5.724;2023-03-01T11:04:34;12.20;;;10.13;;
68921;SDS011;55959;51.244;5.724;2023-03-01T11:07:03;9.90;;;8.33;;
68921;SDS011;55959;51.244;5.724;2023-03-01T11:09:32;10.50;;;9.03;;
68921;SDS011;55959;51.244;5.724;2023-03-01T11:12:11;10.03;;;8.97;;
68921;SDS011;55959;51.244;5.724;2023-03-01T11:14:50;11.07;;;9.07;;
68921;SDS011;55959;51.244;5.724;2023-03-01T11:17:31;10.83;;;8.33;;
68921;SDS011;55959;51.244;5.724;2023-03-01T11:23:12;9.30;;;8.30;;
68921;SDS011;55959;51.244;5.724;2023-03-01T11:33:16;9.97;;;8.93;;
68921;SDS011;55959;51.244;5.724;2023-03-01T11:40:41;12.13;;;9.63;;
68921;SDS011;55959;51.244;5.724;2023-03-01T11:56:28;9.47;;;8.47;;
68921;SDS011;55959;51.244;5.724;2023-03-01T11:59:31;10.83;;;9.10;;
68921;SDS011;55959;51.244;5.724;2023-03-01T12:05:49;10.77;;;9.53;;
68921;SDS011;55959;51.244;5.724;2023-03-01T12:09:09;9.30;;;8.30;;
68921;SDS011;55959;51.244;5.724;2023-03-01T12:18:45;11.07;;;9.60;;
68921;SDS011;55959;51.244;5.724;2023-03-01T12:37:26;9.77;;;8.77;;
68921;SDS011;55959;51.244;5.724;2023-03-01T12:40:29;11.50;;;8.90;;
68921;SDS011;55959;51.244;5.724;2023-03-01T12:50:36;10.20;;;7.83;;
68921;SDS011;55959;51.244;5.724;2023-03-01T12:53:21;10.27;;;9.17;;
68921;SDS011;55959;51.244;5.724;2023-03-01T12:56:29;10.20;;;8.87;;
68921;SDS011;55959;51.244;5.724;2023-03-01T13:00:00;12.27;;;9.47;;
68921;SDS011;55959;51.244;5.724;2023-03-01T13:09:47;10.47;;;8.97;;
68921;SDS011;55959;51.244;5.724;2023-03-01T13:15:34;9.60;;;8.07;;
68921;SDS011;55959;51.244;5.724;2023-03-01T13:18:26;8.53;;;7.63;;
68921;SDS011;55959;51.244;5.724;2023-03-01T13:20:55;10.27;;;7.90;;
68921;SDS011;55959;51.244;5.724;2023-03-01T13:23:37;8.70;;;7.63;;
68921;SDS011;55959;51.244;5.724;2023-03-01T13:28:56;12.03;;;7.93;;
68921;SDS011;55959;51.244;5.724;2023-03-01T13:37:42;7.93;;;6.53;;
68921;SDS011;55959;51.244;5.724;2023-03-01T13:42:57;8.37;;;7.23;;
68921;SDS011;55959;51.244;5.724;2023-03-01T13:49:09;6.90;;;6.20;;
68921;SDS011;55959;51.244;5.724;2023-03-01T13:51:47;8.67;;;7.00;;
68921;SDS011;55959;51.244;5.724;2023-03-01T13:54:38;8.27;;;7.00;;
68921;SDS011;55959;51.244;5.724;2023-03-01T13:57:28;6.93;;;6.23;;
68921;SDS011;55959;51.244;5.724;2023-03-01T14:00:04;6.50;;;5.60;;
68921;SDS011;55959;51.244;5.724;2023-03-01T14:03:04;7.13;;;6.13;;
68921;SDS011;55959;51.244;5.724;2023-03-01T14:06:02;8.23;;;6.27;;
68921;SDS011;55959;51.244;5.724;2023-03-01T14:09:05;8.93;;;6.70;;
68921;SDS011;55959;51.244;5.724;2023-03-01T14:15:32;6.50;;;5.57;;
68921;SDS011;55959;51.244;5.724;2023-03-01T14:18:29;7.03;;;5.73;;
68921;SDS011;55959;51.244;5.724;2023-03-01T14:21:19;5.97;;;5.37;;
68921;SDS011;55959;51.244;5.724;2023-03-01T14:24:01;7.03;;;6.00;;
68921;SDS011;55959;51.244;5.724;2023-03-01T14:26:32;6.87;;;6.27;;
68921;SDS011;55959;51.244;5.724;2023-03-01T14:29:13;9.37;;;7.20;;
68921;SDS011;55959;51.244;5.724;2023-03-01T14:41:40;6.40;;;5.50;;
68921;SDS011;55959;51.244;5.724;2023-03-01T14:44:18;6.67;;;5.50;;
68921;SDS011;55959;51.244;5.724;2023-03-01T14:46:54;6.97;;;5.93;;
68921;SDS011;55959;51.244;5.724;2023-03-01T15:00:27;6.07;;;5.40;;
68921;SDS011;55959;51.244;5.724;2023-03-01T15:06:28;6.73;;;5.80;;
68921;SDS011;55959;51.244;5.724;2023-03-01T15:09:12;7.37;;;5.73;;
68921;SDS011;55959;51.244;5.724;2023-03-01T15:43:36;7.03;;;6.33;;
68921;SDS011;55959;51.244;5.724;2023-03-01T15:54:32;8.20;;;6.93;;
68921;SDS011;55959;51.244;5.724;2023-03-01T15:58:04;8.07;;;7.13;;
68921;SDS011;55959;51.244;5.724;2023-03-01T16:01:11;8.07;;;6.90;;
68921;SDS011;55959;51.244;5.724;2023-03-01T16:03:50;9.13;;;7.07;;
68921;SDS011;55959;51.244;5.724;2023-03-01T16:06:17;7.30;;;6.50;;
68921;SDS011;55959;51.244;5.724;2023-03-01T16:12:18;7.43;;;6.63;;
68921;SDS011;55959;51.244;5.724;2023-03-01T16:18:00;7.87;;;6.57;;
68921;SDS011;55959;51.244;5.724;2023-03-01T16:20:31;10.33;;;7.93;;
68921;SDS011;55959;51.244;5.724;2023-03-01T16:23:06;8.93;;;7.37;;
68921;SDS011;55959;51.244;5.724;2023-03-01T16:32:04;9.20;;;7.23;;
68921;SDS011;55959;51.244;5.724;2023-03-01T16:34:37;8.17;;;7.17;;
68921;SDS011;55959;51.244;5.724;2023-03-01T16:43:31;8.73;;;7.10;;
68921;SDS011;55959;51.244;5.724;2023-03-01T16:46:38;8.03;;;6.90;;
68921;SDS011;55959;51.244;5.724;2023-03-01T16:49:10;8.67;;;6.70;;
68921;SDS011;55959;51.244;5.724;2023-03-01T16:51:46;8.77;;;7.73;;
68921;SDS011;55959;51.244;5.724;2023-03-01T16:54:51;8.27;;;7.47;;
68921;SDS011;55959;51.244;5.724;2023-03-01T16:57:33;10.67;;;7.93;;
68921;SDS011;55959;51.244;5.724;2023-03-01T17:03:28;10.03;;;8.43;;
68921;SDS011;55959;51.244;5.724;2023-03-01T17:20:00;8.33;;;7.10;;
68921;SDS011;55959;51.244;5.724;2023-03-01T17:23:13;7.80;;;6.70;;
68921;SDS011;55959;51.244;5.724;2023-03-01T17:25:55;10.23;;;7.50;;
68921;SDS011;55959;51.244;5.724;2023-03-01T17:29:25;10.67;;;8.10;;
68921;SDS011;55959;51.244;5.724;2023-03-01T17:32:14;9.37;;;7.40;;
68921;SDS011;55959;51.244;5.724;2023-03-01T17:35:20;9.13;;;7.63;;
68921;SDS011;55959;51.244;5.724;2023-03-01T17:41:53;7.90;;;6.90;;
68921;SDS011;55959;51.244;5.724;2023-03-01T17:44:36;8.57;;;7.33;;
68921;SDS011;55959;51.244;5.724;2023-03-01T17:47:21;9.33;;;7.90;;
68921;SDS011;55959;51.244;5.724;2023-03-01T17:50:00;10.10;;;8.53;;
68921;SDS011;55959;51.244;5.724;2023-03-01T17:52:37;11.27;;;9.07;;
68921;SDS011;55959;51.244;5.724;2023-03-01T17:56:02;9.77;;;8.53;;
68921;SDS011;55959;51.244;5.724;2023-03-01T17:58:47;10.10;;;8.37;;
68921;SDS011;55959;51.244;5.724;2023-03-01T18:01:26;9.60;;;7.37;;
68921;SDS011;55959;51.244;5.724;2023-03-01T18:06:53;8.07;;;6.93;;
68921;SDS011;55959;51.244;5.724;2023-03-01T18:09:33;9.37;;;6.93;;
68921;SDS011;55959;51.244;5.724;2023-03-01T18:12:12;9.63;;;8.17;;
68921;SDS011;55959;51.244;5.724;2023-03-01T18:14:38;9.70;;;7.10;;
68921;SDS011;55959;51.244;5.724;2023-03-01T18:17:05;10.07;;;7.63;;
68921;SDS011;55959;51.244;5.724;2023-03-01T18:19:37;9.57;;;7.77;;
68921;SDS011;55959;51.244;5.724;2023-03-01T18:22:17;9.10;;;7.60;;
68921;SDS011;55959;51.244;5.724;2023-03-01T18:24:56;9.00;;;8.07;;
68921;SDS011;55959;51.244;5.724;2023-03-01T18:27:40;7.73;;;6.93;;
68921;SDS011;55959;51.244;5.724;2023-03-01T18:30:06;10.53;;;7.90;;
68921;SDS011;55959;51.244;5.724;2023-03-01T18:33:02;8.53;;;7.43;;
68921;SDS011;55959;51.244;5.724;2023-03-01T18:35:35;10.83;;;9.57;;
68921;SDS011;55959;51.244;5.724;2023-03-01T18:38:06;9.57;;;7.50;;
68921;SDS011;55959;51.244;5.724;2023-03-01T18:40:42;9.40;;;7.50;;
68921;SDS011;55959;51.244;5.724;2023-03-01T18:43:14;9.70;;;7.80;;
68921;SDS011;55959;51.244;5.724;2023-03-01T18:49:12;9.40;;;8.50;;
68921;SDS011;55959;51.244;5.724;2023-03-01T18:51:51;9.33;;;7.27;;
68921;SDS011;55959;51.244;5.724;2023-03-01T18:54:18;8.73;;;7.33;;
68921;SDS011;55959;51.244;5.724;2023-03-01T18:56:48;8.90;;;7.63;;
68921;SDS011;55959;51.244;5.724;2023-03-01T18:59:15;8.77;;;6.90;;
68921;SDS011;55959;51.244;5.724;2023-03-01T19:01:42;9.87;;;7.00;;
68921;SDS011;55959;51.244;5.724;2023-03-01T19:04:09;8.27;;;7.37;;
68921;SDS011;55959;51.244;5.724;2023-03-01T19:06:40;7.90;;;7.03;;
68921;SDS011;55959;51.244;5.724;2023-03-01T19:09:07;9.13;;;7.13;;
68921;SDS011;55959;51.244;5.724;2023-03-01T19:11:35;9.43;;;8.03;;
68921;SDS011;55959;51.244;5.724;2023-03-01T19:14:02;7.60;;;6.80;;
68921;SDS011;55959;51.244;5.724;2023-03-01T19:16:29;9.60;;;7.87;;
68921;SDS011;55959;51.244;5.724;2023-03-01T19:19:00;9.73;;;7.43;;
68921;SDS011;55959;51.244;5.724;2023-03-01T19:21:30;9.17;;;7.17;;
68921;SDS011;55959;51.244;5.724;2023-03-01T19:23:57;8.57;;;7.37;;
68921;SDS011;55959;51.244;5.724;2023-03-01T19:26:25;8.70;;;7.57;;
68921;SDS011;55959;51.244;5.724;2023-03-01T19:28:52;12.10;;;7.77;;
68921;SDS011;55959;51.244;5.724;2023-03-01T19:31:20;9.37;;;7.93;;
68921;SDS011;55959;51.244;5.724;2023-03-01T19:33:49;10.07;;;6.93;;
68921;SDS011;55959;51.244;5.724;2023-03-01T19:36:16;8.93;;;7.20;;
68921;SDS011;55959;51.244;5.724;2023-03-01T19:38:46;8.50;;;6.97;;
68921;SDS011;55959;51.244;5.724;2023-03-01T19:41:16;10.90;;;7.83;;
68921;SDS011;55959;51.244;5.724;2023-03-01T19:43:43;11.60;;;8.00;;
68921;SDS011;55959;51.244;5.724;2023-03-01T19:46:19;10.30;;;7.97;;
68921;SDS011;55959;51.244;5.724;2023-03-01T20:00:20;11.07;;;6.80;;
68921;SDS011;55959;51.244;5.724;2023-03-01T20:10:05;7.90;;;6.63;;
68921;SDS011;55959;51.244;5.724;2023-03-01T20:12:45;7.43;;;6.30;;
68921;SDS011;55959;51.244;5.724;2023-03-01T20:15:27;8.73;;;6.30;;
68921;SDS011;55959;51.244;5.724;2023-03-01T20:17:58;8.80;;;6.27;;
68921;SDS011;55959;51.244;5.724;2023-03-01T20:20:56;9.03;;;6.80;;
68921;SDS011;55959;51.244;5.724;2023-03-01T20:24:04;8.60;;;6.40;;
68921;SDS011;55959;51.244;5.724;2023-03-01T20:27:16;6.90;;;5.50;;
68921;SDS011;55959;51.244;5.724;2023-03-01T20:31:01;7.53;;;6.07;;
68921;SDS011;55959;51.244;5.724;2023-03-01T20:37:23;8.53;;;7.13;;
68921;SDS011;55959;51.244;5.724;2023-03-01T20:40:00;7.83;;;7.03;;
68921;SDS011;55959;51.244;5.724;2023-03-01T20:42:55;9.57;;;6.87;;
68921;SDS011;55959;51.244;5.724;2023-03-01T20:45:56;7.10;;;6.10;;
68921;SDS011;55959;51.244;5.724;2023-03-01T20:49:26;8.00;;;6.60;;
68921;SDS011;55959;51.244;5.724;2023-03-01T20:55:28;9.93;;;7.53;;
68921;SDS011;55959;51.244;5.724;2023-03-01T20:58:29;7.33;;;6.17;;